Information for Kuala Lumpur

back to airport list

ICAO Code:WMKK Country:Malaysia
Airport Name:Kuala Lumpur Is Hub:No
Latitude:2.72555 Longitude:101.697
Scheduled Departures:0 Scheduled Arrivals:0
Total Past Departures:0 Total Past Arrivals:0
Pilots Based:0 Current Pilot Location:0
WMKK 242030Z 00000KT 9999 FEW030 SCT140 BKN280 26/23 Q1008 NOSIG


Nearby Destination Airports

ICAO Airport Country GC Distance View
WSSS Singapore Changi Singapore 160 NM View Airport Page


+ Show Timetable

Scheduled Departures from WMKK

Flight To Destination Days Dep. Time Aircraft Info
No Scheduled Departures!


Scheduled Arrivals to WMKK

Flight From Origin Days Arr. Time Aircraft Info
No Scheduled Arrivals!
+ Show Recent Flight Info

Recent Departures from WMKK

Flight To Destination Pilot Flighttime Landingrate Aircraft View
No Recent Departure PIREPS!


Recent Arrivals to WMKK

Flight From Origin Pilot Flighttime Landingrate Aircraft View
No Recent Arrival PIREPS!
+ Show Pilot Information

Pilots based at WMKK

Avatar Pilot ID Name Location Rank View Profile
No Pilots are based at this airport!


Pilots currently at WMKK

Avatar Pilot ID Name Location Rank On Location since View Profile
Currently there are no pilots at this airport!
- Hide Map